Time;durP1;ratioP1;P1;durP2;ratioP2;P2;SDS_P1;SDS_P2;PMS_P1;PMS_P2;Temp;Humidity;BMP_temperature;BMP_pressure;BME280_temperature;BME280_humidity;BME280_pressure;Samples;Min_cycle;Max_cycle;Signal;HPM_P1;HPM_P2
2022/03/01 00:00:44;;;;;;;13.60;1.48;;;21.70;99.90;;;;;;5095578;28;20247;-75
2022/03/01 00:03:15;;;;;;;9.90;1.20;;;21.70;99.90;;;;;;5095552;28;20561;-72
2022/03/01 00:05:45;;;;;;;13.30;1.40;;;21.80;99.90;;;;;;5095453;28;20222;-82
2022/03/01 00:08:16;;;;;;;6.57;1.05;;;21.70;99.90;;;;;;5095515;28;20189;-76
2022/03/01 00:10:48;;;;;;;7.60;1.20;;;21.70;99.90;;;;;;5095511;28;20192;-76
2022/03/01 00:13:19;;;;;;;8.13;1.20;;;21.80;99.90;;;;;;5095276;28;20639;-72
2022/03/01 00:15:50;;;;;;;10.07;1.45;;;21.90;99.90;;;;;;5095329;28;20192;-73
2022/03/01 00:18:20;;;;;;;5.82;1.10;;;22.00;99.90;;;;;;5095232;28;20200;-76
2022/03/01 00:20:51;;;;;;;9.63;1.40;;;22.10;99.90;;;;;;5095238;28;20220;-76
2022/03/01 00:23:22;;;;;;;10.43;1.20;;;22.10;99.90;;;;;;5095216;28;20192;-72
2022/03/01 00:25:54;;;;;;;7.75;1.05;;;22.20;99.90;;;;;;5094926;28;20197;-76
2022/03/01 00:28:25;;;;;;;11.15;1.20;;;22.40;99.90;;;;;;5095095;28;20593;-72
2022/03/01 00:30:57;;;;;;;8.98;1.35;;;22.50;99.90;;;;;;5095001;28;20214;-72
2022/03/01 00:33:27;;;;;;;6.82;0.95;;;22.30;99.90;;;;;;5095112;28;20188;-72
2022/03/01 00:35:58;;;;;;;10.40;1.40;;;22.20;99.90;;;;;;5094660;28;20251;-74
2022/03/01 00:38:29;;;;;;;10.27;1.48;;;22.00;99.90;;;;;;5094884;28;20188;-72
2022/03/01 00:41:02;;;;;;;11.30;1.55;;;21.90;99.90;;;;;;5094481;28;20288;-72
2022/03/01 00:43:32;;;;;;;11.27;1.77;;;21.90;99.90;;;;;;5094801;28;20196;-78
2022/03/01 00:46:03;;;;;;;10.48;1.67;;;22.00;99.90;;;;;;5094733;28;20212;-75
2022/03/01 00:48:34;;;;;;;13.70;1.83;;;22.10;99.90;;;;;;5084105;28;20219;-73
2022/03/01 00:51:05;;;;;;;11.68;1.63;;;22.20;99.90;;;;;;5094941;28;20189;-74
2022/03/01 00:53:35;;;;;;;10.77;1.52;;;22.40;99.90;;;;;;5094606;28;20189;-73
2022/03/01 00:56:08;;;;;;;10.75;1.20;;;22.50;99.90;;;;;;5094351;28;20188;-73
2022/03/01 00:58:39;;;;;;;10.60;1.40;;;22.60;99.90;;;;;;5094127;28;20223;-73
2022/03/01 01:01:10;;;;;;;7.43;1.35;;;22.50;99.90;;;;;;5094403;28;20311;-77
2022/03/01 01:03:40;;;;;;;11.02;1.60;;;22.50;99.90;;;;;;5094522;28;20196;-71
2022/03/01 01:06:11;;;;;;;10.55;1.30;;;22.40;99.90;;;;;;5074149;28;20196;-73
2022/03/01 01:08:42;;;;;;;7.78;1.30;;;22.20;99.90;;;;;;5074077;28;20523;-78
2022/03/01 01:11:15;;;;;;;7.40;1.17;;;22.10;99.90;;;;;;5073852;28;20255;-82
2022/03/01 01:13:45;;;;;;;6.53;1.20;;;22.10;99.90;;;;;;5073924;28;20189;-73
2022/03/01 01:16:16;;;;;;;7.78;1.10;;;21.90;99.90;;;;;;5073948;28;20532;-74
2022/03/01 01:18:47;;;;;;;10.65;1.20;;;21.70;99.90;;;;;;5073919;28;20710;-78
2022/03/01 01:21:18;;;;;;;12.73;1.58;;;21.60;99.90;;;;;;5073781;28;20224;-74
2022/03/01 01:23:48;;;;;;;13.40;1.55;;;21.70;99.90;;;;;;5073855;28;20636;-73
2022/03/01 01:26:21;;;;;;;11.88;1.30;;;21.80;99.90;;;;;;5073702;28;20192;-77
2022/03/01 01:28:51;;;;;;;8.88;1.27;;;21.90;99.90;;;;;;5073775;28;20200;-73
2022/03/01 01:31:22;;;;;;;9.65;1.40;;;22.00;99.90;;;;;;5073708;28;20580;-75
2022/03/01 01:33:53;;;;;;;8.93;1.27;;;21.90;99.90;;;;;;5073707;28;20189;-81
2022/03/01 01:36:25;;;;;;;10.77;1.40;;;21.80;99.90;;;;;;5073455;28;20290;-77
2022/03/01 01:38:55;;;;;;;13.27;1.77;;;21.80;99.90;;;;;;5073358;28;20188;-72
2022/03/01 01:41:28;;;;;;;9.88;1.50;;;21.70;99.90;;;;;;5083747;28;20215;-73
2022/03/01 01:44:01;;;;;;;10.98;1.65;;;21.70;99.90;;;;;;5093793;28;20192;-72
2022/03/01 01:46:31;;;;;;;15.57;2.00;;;21.60;99.90;;;;;;5093348;28;20220;-71
2022/03/01 01:49:02;;;;;;;12.13;1.90;;;21.70;99.90;;;;;;5093696;28;20652;-73
2022/03/01 01:51:33;;;;;;;12.57;1.90;;;21.90;99.90;;;;;;5093645;28;20189;-72
2022/03/01 01:54:04;;;;;;;15.70;1.77;;;21.80;99.90;;;;;;5093441;28;20636;-73
2022/03/01 01:56:36;;;;;;;15.27;2.08;;;21.80;99.90;;;;;;5093474;28;20271;-71
2022/03/01 01:59:07;;;;;;;10.10;1.77;;;21.90;99.90;;;;;;5093419;28;20224;-71
2022/03/01 02:01:38;;;;;;;16.98;1.95;;;21.90;99.90;;;;;;5093025;28;20211;-73
2022/03/01 02:04:08;;;;;;;16.48;1.90;;;21.90;99.90;;;;;;5093348;28;20232;-70
2022/03/01 02:06:40;;;;;;;18.40;2.13;;;22.00;99.90;;;;;;5093413;28;20188;-74
2022/03/01 02:09:11;;;;;;;16.02;1.83;;;22.00;99.90;;;;;;5073093;28;20200;-72
2022/03/01 02:11:43;;;;;;;10.50;1.75;;;22.20;99.90;;;;;;5072464;28;20605;-75
2022/03/01 02:14:14;;;;;;;14.25;1.75;;;22.30;99.90;;;;;;5073266;28;20189;-75
2022/03/01 02:16:45;;;;;;;11.60;1.95;;;22.50;99.90;;;;;;5073165;28;20242;-74
2022/03/01 02:19:17;;;;;;;8.77;1.33;;;22.60;99.90;;;;;;5076063;28;20577;-74
2022/03/01 02:21:55;;;;;;;11.70;1.50;;;22.60;99.90;;;;;;5093226;28;20216;-71
2022/03/01 02:24:27;;;;;;;9.23;1.75;;;22.70;99.90;;;;;;5093398;28;20188;-72
2022/03/01 02:26:58;;;;;;;13.02;1.83;;;23.00;99.90;;;;;;5093245;28;20200;-82
2022/03/01 02:29:30;;;;;;;10.25;1.40;;;23.30;99.90;;;;;;5093324;28;20185;-76
2022/03/01 02:32:02;;;;;;;11.40;1.45;;;23.30;99.90;;;;;;5093300;28;20202;-73
2022/03/01 02:34:33;;;;;;;9.07;1.40;;;23.30;99.90;;;;;;5093357;28;20593;-80
2022/03/01 02:37:06;;;;;;;8.27;1.10;;;23.20;99.90;;;;;;5092831;28;20231;-72
2022/03/01 02:39:37;;;;;;;6.20;1.13;;;23.00;99.90;;;;;;5093249;28;20552;-80
2022/03/01 02:42:08;;;;;;;9.52;1.27;;;22.60;99.90;;;;;;5093214;28;20277;-76
2022/03/01 02:44:39;;;;;;;7.13;1.17;;;22.40;99.90;;;;;;5093105;28;20193;-72
2022/03/01 02:47:09;;;;;;;8.65;1.50;;;22.20;99.90;;;;;;5093038;28;20307;-74
2022/03/01 02:49:40;;;;;;;7.93;1.45;;;22.10;99.90;;;;;;5093042;28;20195;-75
2022/03/01 02:52:15;;;;;;;11.05;1.65;;;21.90;99.90;;;;;;5092861;28;20671;-77
2022/03/01 02:54:45;;;;;;;9.10;1.83;;;21.90;99.90;;;;;;5092984;28;20196;-75
2022/03/01 02:57:16;;;;;;;7.72;1.27;;;21.80;99.90;;;;;;5093075;28;20215;-71
2022/03/01 02:59:47;;;;;;;11.85;1.85;;;21.80;99.90;;;;;;5092976;28;20189;-71
2022/03/01 03:02:18;;;;;;;13.05;1.83;;;21.80;99.90;;;;;;5093220;28;20200;-72
2022/03/01 03:04:49;;;;;;;10.75;1.50;;;21.70;99.90;;;;;;5092722;28;20530;-72
2022/03/01 03:07:21;;;;;;;13.82;2.10;;;21.70;99.90;;;;;;5092873;28;20188;-72
2022/03/01 03:09:52;;;;;;;12.18;1.65;;;21.70;99.90;;;;;;5092550;28;20195;-72
2022/03/01 03:12:23;;;;;;;12.60;1.77;;;21.70;99.90;;;;;;5082154;28;20590;-72
2022/03/01 03:14:53;;;;;;;10.93;2.00;;;21.80;99.90;;;;;;5092559;28;20188;-72
2022/03/01 03:17:24;;;;;;;14.93;1.90;;;21.80;99.90;;;;;;5092532;28;20188;-72
2022/03/01 03:19:55;;;;;;;17.38;1.73;;;21.90;99.90;;;;;;5092745;28;20284;-71
2022/03/01 03:22:27;;;;;;;13.55;1.60;;;21.90;99.90;;;;;;5094136;28;20246;-72
2022/03/01 03:24:58;;;;;;;13.07;1.88;;;22.00;99.90;;;;;;5096405;28;20192;-71
2022/03/01 03:27:29;;;;;;;11.13;2.00;;;22.20;99.90;;;;;;5096226;28;20279;-72
2022/03/01 03:29:59;;;;;;;11.85;1.88;;;22.20;99.90;;;;;;5096324;28;20249;-71
2022/03/01 03:32:30;;;;;;;12.38;1.77;;;22.20;99.90;;;;;;5095552;28;20636;-71
2022/03/01 03:35:01;;;;;;;14.02;1.83;;;22.30;99.90;;;;;;5095493;28;20234;-71
2022/03/01 03:37:33;;;;;;;10.20;1.75;;;22.30;99.90;;;;;;5096097;28;20639;-71
2022/03/01 03:40:05;;;;;;;16.80;2.03;;;22.40;99.90;;;;;;5095825;28;20713;-71
2022/03/01 03:42:35;;;;;;;11.30;2.00;;;22.40;99.90;;;;;;5095980;28;20630;-71
2022/03/01 03:45:06;;;;;;;14.73;2.08;;;22.40;99.90;;;;;;5095975;28;20196;-71
2022/03/01 03:47:37;;;;;;;13.98;1.80;;;22.50;99.90;;;;;;5095427;28;20223;-71
2022/03/01 03:50:09;;;;;;;11.88;1.50;;;22.50;99.90;;;;;;5095736;28;20204;-70
2022/03/01 03:52:43;;;;;;;7.50;1.20;;;22.40;99.90;;;;;;5095152;28;20658;-73
2022/03/01 03:55:14;;;;;;;5.82;1.17;;;22.20;99.90;;;;;;5095522;28;20189;-72
2022/03/01 03:57:45;;;;;;;6.50;1.20;;;22.10;99.90;;;;;;5094511;28;20234;-75
2022/03/01 04:00:17;;;;;;;7.35;1.10;;;21.80;99.90;;;;;;5095557;28;20697;-70
2022/03/01 04:02:50;;;;;;;9.45;1.52;;;21.70;99.90;;;;;;5095573;28;20191;-73
2022/03/01 04:05:21;;;;;;;5.80;0.98;;;21.30;99.90;;;;;;5094817;28;20190;-72
2022/03/01 04:07:54;;;;;;;6.88;1.38;;;21.00;99.90;;;;;;5095269;28;20199;-74
2022/03/01 04:10:25;;;;;;;9.05;1.20;;;20.90;99.90;;;;;;5095396;28;20245;-74
2022/03/01 04:12:55;;;;;;;8.52;1.20;;;20.80;99.90;;;;;;5095365;28;20656;-73
2022/03/01 04:15:26;;;;;;;10.52;1.40;;;20.80;99.90;;;;;;5095309;28;20195;-73
2022/03/01 04:17:56;;;;;;;13.30;1.88;;;20.80;99.90;;;;;;5094752;28;20190;-73
2022/03/01 04:20:27;;;;;;;13.27;1.45;;;20.90;99.90;;;;;;5095170;28;20184;-74
2022/03/01 04:23:00;;;;;;;14.65;1.80;;;20.90;99.90;;;;;;5095002;28;20199;-74
2022/03/01 04:25:31;;;;;;;13.93;1.88;;;21.00;99.90;;;;;;5095125;28;20592;-73
2022/03/01 04:28:01;;;;;;;15.50;1.75;;;21.10;99.90;;;;;;5095158;28;20191;-75
2022/03/01 04:30:32;;;;;;;21.48;2.63;;;21.20;99.90;;;;;;5095110;28;20596;-78
2022/03/01 04:33:03;;;;;;;21.27;2.55;;;21.30;99.90;;;;;;5094802;28;20188;-75
2022/03/01 04:35:34;;;;;;;19.25;2.33;;;21.30;99.90;;;;;;5094243;28;20227;-74
2022/03/01 04:38:07;;;;;;;11.75;2.03;;;21.40;99.90;;;;;;5094583;28;20565;-77
2022/03/01 04:40:37;;;;;;;25.17;2.65;;;21.50;99.90;;;;;;5094701;28;20192;-80
2022/03/01 04:43:08;;;;;;;16.48;2.55;;;21.50;99.90;;;;;;5094896;28;20192;-74
2022/03/01 04:45:39;;;;;;;15.30;2.05;;;21.50;99.90;;;;;;5094559;28;20253;-78
2022/03/01 04:48:09;;;;;;;19.88;2.38;;;21.60;99.90;;;;;;5094466;28;20238;-77
2022/03/01 04:50:40;;;;;;;19.80;2.30;;;21.60;99.90;;;;;;5094591;28;20185;-79
2022/03/01 04:53:13;;;;;;;14.75;2.17;;;21.60;99.90;;;;;;5094673;28;20600;-77
2022/03/01 04:55:43;;;;;;;17.00;2.17;;;21.60;99.90;;;;;;5093460;28;20184;-74
2022/03/01 04:58:15;;;;;;;16.00;2.20;;;21.60;99.90;;;;;;5093987;28;20188;-77
2022/03/01 05:00:46;;;;;;;22.70;2.22;;;21.70;99.90;;;;;;5093435;28;20278;-80
2022/03/01 05:03:18;;;;;;;14.85;2.28;;;21.80;99.90;;;;;;5094275;28;20555;-85
2022/03/01 05:05:49;;;;;;;14.02;1.92;;;21.80;99.90;;;;;;5094427;28;20188;-80
2022/03/01 05:08:21;;;;;;;13.52;1.55;;;21.90;99.90;;;;;;5094200;28;20188;-76
2022/03/01 05:10:53;;;;;;;10.95;1.42;;;22.00;99.90;;;;;;5091969;28;20238;-78
2022/03/01 05:13:23;;;;;;;14.20;1.67;;;21.90;99.90;;;;;;5093872;28;20200;-77
2022/03/01 05:15:54;;;;;;;17.77;1.77;;;22.00;99.90;;;;;;5093697;28;20628;-73
2022/03/01 05:18:25;;;;;;;10.70;1.60;;;22.10;99.90;;;;;;5093803;28;20185;-78
2022/03/01 05:20:56;;;;;;;14.27;1.80;;;22.20;99.90;;;;;;5094059;28;20265;-78
2022/03/01 05:23:29;;;;;;;8.88;1.60;;;22.20;99.90;;;;;;5093746;28;20192;-76
2022/03/01 05:26:00;;;;;;;11.52;1.55;;;22.30;99.90;;;;;;5094100;28;20281;-72
2022/03/01 05:28:31;;;;;;;10.65;1.50;;;22.20;99.90;;;;;;5094266;28;20225;-72
2022/03/01 05:31:02;;;;;;;10.63;1.27;;;22.30;99.90;;;;;;5093571;28;20237;-82
2022/03/01 05:33:33;;;;;;;11.90;1.88;;;22.30;99.90;;;;;;5094034;28;20192;-75
2022/03/01 05:36:03;;;;;;;11.52;1.58;;;22.30;99.90;;;;;;5093410;28;20238;-72
2022/03/01 05:38:36;;;;;;;14.05;1.80;;;22.30;99.90;;;;;;5093784;28;20188;-76
2022/03/01 05:41:06;;;;;;;13.55;1.70;;;22.30;99.90;;;;;;5093912;28;20211;-73
2022/03/01 05:43:39;;;;;;;10.75;1.38;;;22.40;99.90;;;;;;5093772;28;20655;-73
2022/03/01 05:46:10;;;;;;;12.07;1.70;;;22.30;99.90;;;;;;5091913;28;20212;-76
2022/03/01 05:48:41;;;;;;;11.10;1.80;;;22.40;99.90;;;;;;5093736;28;20249;-76
2022/03/01 05:51:11;;;;;;;14.50;1.60;;;22.40;99.90;;;;;;5093690;28;20192;-74
2022/03/01 05:53:45;;;;;;;14.27;1.60;;;22.40;99.90;;;;;;5093680;28;20195;-75
2022/03/01 05:56:16;;;;;;;12.93;1.80;;;22.40;99.90;;;;;;5093643;28;20184;-76
2022/03/01 05:58:46;;;;;;;9.48;1.42;;;22.40;99.90;;;;;;5093831;28;20198;-72
2022/03/01 06:01:17;;;;;;;8.40;1.50;;;22.40;99.90;;;;;;5092875;28;20208;-75
2022/03/01 06:03:48;;;;;;;11.77;1.35;;;22.40;99.90;;;;;;5094165;28;20195;-75
2022/03/01 06:06:18;;;;;;;9.68;1.50;;;22.40;99.90;;;;;;5093009;28;20270;-72
2022/03/01 06:08:51;;;;;;;14.73;2.00;;;22.40;99.90;;;;;;5093529;28;20247;-75
2022/03/01 06:11:22;;;;;;;12.00;1.73;;;22.40;99.90;;;;;;5093378;28;20557;-76
2022/03/01 06:13:52;;;;;;;16.58;2.10;;;22.40;99.90;;;;;;5092847;28;20652;-75
2022/03/01 06:16:23;;;;;;;12.55;1.80;;;22.40;99.90;;;;;;5093395;28;20242;-76
2022/03/01 06:18:54;;;;;;;14.93;2.17;;;22.40;99.90;;;;;;5092981;28;20199;-78
2022/03/01 06:21:24;;;;;;;12.88;2.65;;;22.40;99.90;;;;;;5093243;28;20216;-80
2022/03/01 06:23:57;;;;;;;11.50;1.88;;;22.40;99.90;;;;;;5093266;28;20250;-78
2022/03/01 06:26:28;;;;;;;14.25;1.90;;;22.50;99.90;;;;;;5092633;28;20192;-78
2022/03/01 06:28:59;;;;;;;14.95;2.03;;;22.50;99.90;;;;;;5092561;28;20184;-79
2022/03/01 06:31:29;;;;;;;18.40;2.30;;;22.60;99.90;;;;;;5092722;28;20192;-79
2022/03/01 06:34:00;;;;;;;13.90;2.03;;;22.60;99.90;;;;;;5093174;28;20199;-73
2022/03/01 06:36:31;;;;;;;11.65;2.25;;;22.40;99.90;;;;;;5092950;28;20293;-79
2022/03/01 06:39:04;;;;;;;11.98;2.05;;;22.00;99.90;;;;;;5092783;28;20195;-77
2022/03/01 06:41:35;;;;;;;17.15;1.73;;;21.80;99.90;;;;;;5093018;28;20227;-74
2022/03/01 06:44:05;;;;;;;14.32;2.30;;;21.60;99.90;;;;;;5093010;28;20192;-73
2022/03/01 06:46:36;;;;;;;10.50;1.70;;;21.40;99.90;;;;;;5092334;28;20216;-74
2022/03/01 06:49:07;;;;;;;13.00;1.67;;;21.30;99.90;;;;;;5092949;28;20188;-75
2022/03/01 06:51:37;;;;;;;12.88;1.90;;;21.20;99.90;;;;;;5093333;28;20216;-74
2022/03/01 06:54:10;;;;;;;18.08;2.30;;;21.20;99.90;;;;;;5093084;28;20185;-80
2022/03/01 06:56:41;;;;;;;15.88;2.15;;;21.20;99.90;;;;;;5093371;28;20184;-77
2022/03/01 06:59:12;;;;;;;16.48;2.67;;;21.20;99.90;;;;;;5096746;28;20188;-73
2022/03/01 07:01:42;;;;;;;16.20;2.10;;;21.20;99.90;;;;;;5097212;28;20212;-77
2022/03/01 07:04:13;;;;;;;10.75;1.60;;;21.10;99.90;;;;;;5096846;28;20196;-74
2022/03/01 07:06:44;;;;;;;12.30;2.10;;;21.10;99.90;;;;;;5096726;28;20200;-74
2022/03/01 07:09:16;;;;;;;16.23;1.83;;;21.10;99.90;;;;;;5096669;28;20627;-72
2022/03/01 07:11:47;;;;;;;8.55;1.30;;;21.10;99.90;;;;;;5096831;28;20195;-74
2022/03/01 07:14:18;;;;;;;13.18;1.90;;;21.10;99.90;;;;;;5096771;28;20189;-72
2022/03/01 07:16:48;;;;;;;7.93;1.33;;;21.10;99.90;;;;;;5096733;28;20237;-72
2022/03/01 07:19:19;;;;;;;10.13;1.85;;;21.20;99.90;;;;;;5096496;28;20189;-72
2022/03/01 07:21:50;;;;;;;12.15;1.90;;;21.20;99.90;;;;;;5096375;28;20219;-72
2022/03/01 07:24:22;;;;;;;13.48;2.08;;;21.20;99.90;;;;;;5096483;28;20192;-72
2022/03/01 07:26:53;;;;;;;14.15;2.38;;;21.20;99.90;;;;;;5096139;28;20628;-72
2022/03/01 07:29:24;;;;;;;13.35;1.70;;;21.20;99.90;;;;;;5096608;28;20271;-72
2022/03/01 07:31:54;;;;;;;16.85;1.90;;;21.30;99.90;;;;;;5096299;28;20261;-73
2022/03/01 07:34:25;;;;;;;10.93;2.17;;;21.40;99.90;;;;;;5096289;28;20253;-73
2022/03/01 07:36:56;;;;;;;11.15;1.85;;;21.40;99.90;;;;;;5095984;28;20232;-72
2022/03/01 07:39:29;;;;;;;14.35;2.20;;;21.40;99.90;;;;;;5096078;28;20185;-75
2022/03/01 07:42:00;;;;;;;13.20;1.90;;;21.40;99.90;;;;;;5095711;28;20208;-72
2022/03/01 07:44:30;;;;;;;15.63;2.17;;;21.40;99.90;;;;;;5096153;28;20192;-72
2022/03/01 07:47:01;;;;;;;14.50;1.80;;;21.40;99.90;;;;;;5095653;28;20251;-73
2022/03/01 07:49:32;;;;;;;9.75;1.85;;;21.40;99.90;;;;;;5095905;28;20275;-74
2022/03/01 07:52:02;;;;;;;12.70;1.90;;;21.40;99.90;;;;;;5095822;28;20196;-74
2022/03/01 07:54:35;;;;;;;14.95;2.10;;;21.50;99.90;;;;;;5095782;28;20184;-73
2022/03/01 07:57:06;;;;;;;12.95;1.80;;;21.60;99.90;;;;;;5095459;28;20553;-74
2022/03/01 07:59:37;;;;;;;11.43;2.28;;;21.50;99.90;;;;;;5095681;28;20199;-73
2022/03/01 08:02:08;;;;;;;13.20;2.08;;;21.40;99.90;;;;;;5095704;28;20223;-72
2022/03/01 08:04:41;;;;;;;13.18;2.35;;;21.20;99.90;;;;;;5095587;28;20576;-71
2022/03/01 08:07:12;;;;;;;19.15;2.72;;;21.10;99.90;;;;;;5095618;28;20188;-71
2022/03/01 08:09:45;;;;;;;15.82;2.35;;;21.00;99.90;;;;;;5094546;28;20554;-73
2022/03/01 08:12:16;;;;;;;14.75;2.42;;;20.80;99.90;;;;;;5095651;28;20655;-74
2022/03/01 08:14:46;;;;;;;15.63;2.72;;;20.80;99.90;;;;;;5095842;28;20188;-76
2022/03/01 08:17:17;;;;;;;21.00;2.60;;;20.80;99.90;;;;;;5095099;28;20685;-75
2022/03/01 08:19:48;;;;;;;17.83;2.45;;;20.80;99.90;;;;;;5095187;28;20195;-73
2022/03/01 08:22:19;;;;;;;20.67;2.95;;;20.70;99.90;;;;;;5095332;28;20216;-74
2022/03/01 08:24:52;;;;;;;20.50;2.95;;;20.70;99.90;;;;;;5094935;28;20303;-74
2022/03/01 08:27:22;;;;;;;19.67;2.78;;;20.70;99.90;;;;;;5095169;28;20193;-76
2022/03/01 08:29:54;;;;;;;15.90;2.42;;;20.70;99.90;;;;;;5095158;28;20196;-73
2022/03/01 08:32:25;;;;;;;20.13;2.67;;;20.70;99.90;;;;;;5095109;28;20192;-74
2022/03/01 08:34:55;;;;;;;16.85;2.78;;;20.70;99.90;;;;;;5094937;28;20678;-73
2022/03/01 08:37:26;;;;;;;18.33;2.78;;;20.70;99.90;;;;;;5074925;28;20189;-73
2022/03/01 08:40:01;;;;;;;20.67;2.60;;;20.70;99.90;;;;;;5074394;28;20189;-73
2022/03/01 08:42:31;;;;;;;17.55;3.15;;;20.70;99.90;;;;;;5074990;28;20215;-73
2022/03/01 08:45:02;;;;;;;16.98;2.85;;;20.70;99.90;;;;;;5074681;28;20258;-73
2022/03/01 08:47:33;;;;;;;19.48;3.53;;;20.70;99.90;;;;;;5093390;28;20299;-73
2022/03/01 08:50:04;;;;;;;17.58;3.28;;;20.70;99.90;;;;;;5095033;28;20199;-75
2022/03/01 08:52:34;;;;;;;13.82;2.30;;;20.80;99.90;;;;;;5094678;28;20184;-73
2022/03/01 08:55:07;;;;;;;16.08;2.40;;;20.80;99.90;;;;;;5094357;28;20215;-77
2022/03/01 08:57:38;;;;;;;15.80;2.22;;;20.80;99.90;;;;;;5094549;28;20222;-80
2022/03/01 09:00:12;;;;;;;18.83;2.22;;;20.80;99.90;;;;;;5094686;28;20188;-81
2022/03/01 09:02:43;;;;;;;22.05;2.38;;;20.80;99.90;;;;;;5094581;28;20675;-74
2022/03/01 09:05:13;;;;;;;18.23;2.60;;;20.80;99.90;;;;;;5094356;28;20192;-77
2022/03/01 09:07:44;;;;;;;12.32;1.98;;;20.80;99.90;;;;;;5094602;28;20184;-73
2022/03/01 09:10:21;;;;;;;8.32;1.85;;;20.80;99.90;;;;;;5094871;28;20668;-80
2022/03/01 09:12:54;;;;;;;16.63;2.30;;;20.70;99.90;;;;;;5094442;28;20220;-72
2022/03/01 09:15:26;;;;;;;11.85;1.77;;;20.60;99.90;;;;;;5094251;28;20188;-72
2022/03/01 09:17:56;;;;;;;12.38;1.77;;;20.60;99.90;;;;;;5094242;28;20731;-78
2022/03/01 09:20:27;;;;;;;10.85;1.80;;;20.70;99.90;;;;;;5094001;28;20267;-75
2022/03/01 09:22:58;;;;;;;9.68;2.05;;;20.60;99.90;;;;;;5094026;28;20220;-79
2022/03/01 09:25:31;;;;;;;8.82;1.80;;;20.60;99.90;;;;;;5094009;28;20556;-74
2022/03/01 09:28:01;;;;;;;13.98;2.20;;;20.60;99.90;;;;;;5094080;28;20188;-77
2022/03/01 09:30:32;;;;;;;14.85;2.00;;;20.60;99.90;;;;;;5094255;28;20192;-79
2022/03/01 09:33:03;;;;;;;13.23;1.88;;;20.60;99.90;;;;;;5094084;28;20188;-75
2022/03/01 09:35:34;;;;;;;12.23;2.08;;;20.70;99.90;;;;;;5094224;28;20228;-81
2022/03/01 09:38:04;;;;;;;17.20;2.30;;;20.70;99.90;;;;;;5093680;28;20196;-73
2022/03/01 09:40:37;;;;;;;12.32;1.92;;;20.70;99.90;;;;;;5093874;28;20188;-77
2022/03/01 09:43:09;;;;;;;15.95;1.85;;;20.70;99.90;;;;;;5093778;28;20251;-77
2022/03/01 09:45:40;;;;;;;13.95;2.00;;;20.70;99.90;;;;;;5093456;28;20695;-78
2022/03/01 09:48:10;;;;;;;10.35;1.80;;;20.70;99.90;;;;;;5093685;28;20646;-84
2022/03/01 09:50:41;;;;;;;12.07;1.90;;;20.70;99.90;;;;;;5093790;28;20195;-81
2022/03/01 09:53:12;;;;;;;16.05;2.00;;;20.70;99.90;;;;;;5093606;28;20199;-74
2022/03/01 09:55:44;;;;;;;11.18;2.00;;;20.70;99.90;;;;;;5093612;28;20184;-75
2022/03/01 09:58:16;;;;;;;13.43;1.70;;;20.70;99.90;;;;;;5093659;28;20228;-82
2022/03/01 10:00:47;;;;;;;12.73;2.08;;;20.70;99.90;;;;;;5093892;28;20191;-72
2022/03/01 10:03:19;;;;;;;12.88;1.75;;;20.70;99.90;;;;;;5093723;28;20220;-78
2022/03/01 10:05:51;;;;;;;14.93;1.77;;;20.70;99.90;;;;;;5093544;28;20188;-72
2022/03/01 10:08:24;;;;;;;12.30;1.50;;;20.70;99.90;;;;;;5093723;28;20654;-72
2022/03/01 10:10:59;;;;;;;10.55;1.70;;;20.70;99.90;;;;;;5093911;28;20260;-79
2022/03/01 10:13:31;;;;;;;11.90;1.60;;;20.70;99.90;;;;;;5093554;28;20655;-84
2022/03/01 10:16:10;;;;;;;6.03;1.65;;;20.70;99.90;;;;;;5093503;28;20675;-82
2022/03/01 10:18:43;;;;;;;10.32;1.52;;;20.70;99.90;;;;;;5093434;28;20192;-86
2022/03/01 10:21:15;;;;;;;9.10;1.48;;;20.80;99.90;;;;;;5093722;28;20188;-84
2022/03/01 10:23:50;;;;;;;8.88;1.33;;;20.80;99.90;;;;;;5093623;28;20220;-88
2022/03/01 10:26:37;;;;;;;8.75;1.77;;;20.90;99.90;;;;;;5084597;28;20193;-84
2022/03/01 10:29:08;;;;;;;12.18;1.77;;;21.00;99.90;;;;;;5072766;28;20185;-75
2022/03/01 10:31:39;;;;;;;10.73;1.88;;;20.90;99.90;;;;;;5072466;28;20189;-80
2022/03/01 10:34:13;;;;;;;11.85;1.45;;;20.90;99.90;;;;;;5076771;28;20667;-87
2022/03/01 10:36:47;;;;;;;10.80;1.23;;;20.90;99.90;;;;;;5075352;28;20243;-87
2022/03/01 10:39:19;;;;;;;7.95;1.30;;;20.80;99.90;;;;;;5077054;28;20246;-88
2022/03/01 10:41:53;;;;;;;8.05;1.45;;;20.80;99.90;;;;;;5092422;28;20196;-84
2022/03/01 10:44:25;;;;;;;16.02;1.70;;;20.90;99.90;;;;;;5097425;28;20255;-82
2022/03/01 10:46:58;;;;;;;13.77;1.75;;;20.80;99.90;;;;;;5096687;28;20216;-84
2022/03/01 10:49:32;;;;;;;10.55;1.50;;;20.90;99.90;;;;;;5076651;28;20193;-82
2022/03/01 10:52:05;;;;;;;8.10;1.20;;;21.10;99.90;;;;;;5085778;28;20187;-84
2022/03/01 10:54:37;;;;;;;11.98;1.45;;;21.10;99.90;;;;;;5096966;28;20196;-85
2022/03/01 10:57:11;;;;;;;8.27;1.20;;;21.10;99.90;;;;;;5096852;28;20194;-81
2022/03/01 10:59:43;;;;;;;7.15;1.10;;;21.20;99.90;;;;;;5079100;28;20196;-83
2022/03/01 11:02:16;;;;;;;9.23;1.20;;;21.10;99.90;;;;;;5088659;28;20204;-80
2022/03/01 11:04:47;;;;;;;11.13;1.20;;;21.20;99.90;;;;;;5092873;28;20684;-79
2022/03/01 11:07:18;;;;;;;7.55;1.00;;;21.10;99.90;;;;;;5093555;28;20196;-85
2022/03/01 11:09:49;;;;;;;8.00;1.10;;;21.10;99.90;;;;;;5096167;28;20579;-84
2022/03/01 11:12:24;;;;;;;6.38;1.17;;;21.10;99.90;;;;;;5090083;28;20200;-78
2022/03/01 11:15:19;;;;;;;10.45;1.27;;;21.10;99.90;;;;;;5081892;28;20199;-82
2022/03/01 11:17:58;;;;;;;9.65;1.27;;;21.10;99.90;;;;;;5079403;28;20577;-78
2022/03/01 11:20:34;;;;;;;9.57;1.50;;;21.10;99.90;;;;;;5086900;28;20204;-73
2022/03/01 11:23:09;;;;;;;12.23;1.58;;;21.10;99.90;;;;;;5089035;28;20215;-80
2022/03/01 11:25:41;;;;;;;16.52;1.70;;;21.10;99.90;;;;;;5089651;28;20211;-73
2022/03/01 11:28:14;;;;;;;12.25;1.60;;;21.10;99.90;;;;;;5086898;28;20192;-78
2022/03/01 11:30:51;;;;;;;11.13;1.50;;;21.10;99.90;;;;;;5093075;28;20283;-72
2022/03/01 11:33:28;;;;;;;13.70;1.80;;;21.10;99.90;;;;;;5075663;28;20663;-73
2022/03/01 11:36:00;;;;;;;13.73;1.80;;;21.00;99.90;;;;;;5074850;28;20278;-72
2022/03/01 11:38:32;;;;;;;13.50;2.10;;;21.10;99.90;;;;;;5075860;28;20194;-73
2022/03/01 11:41:14;;;;;;;11.60;2.20;;;21.10;99.90;;;;;;5085122;28;20218;-73
2022/03/01 11:43:46;;;;;;;16.10;2.25;;;21.10;99.90;;;;;;5095956;28;20320;-73
2022/03/01 11:46:19;;;;;;;17.00;2.28;;;21.10;99.90;;;;;;5096069;28;20608;-76
2022/03/01 11:48:56;;;;;;;19.10;2.20;;;21.10;99.90;;;;;;5095763;28;20202;-75
2022/03/01 11:51:36;;;;;;;13.00;1.92;;;21.20;99.90;;;;;;5095952;28;20388;-73
2022/03/01 11:54:10;;;;;;;11.90;1.70;;;21.30;99.90;;;;;;5087375;28;20203;-73
2022/03/01 11:56:41;;;;;;;12.05;1.73;;;21.30;99.90;;;;;;5087868;28;20193;-75
2022/03/01 11:59:14;;;;;;;13.35;1.95;;;21.30;99.90;;;;;;5082335;28;20207;-79
2022/03/01 12:01:46;;;;;;;12.15;1.73;;;21.20;99.90;;;;;;5081372;28;20203;-78
2022/03/01 12:04:21;;;;;;;12.25;1.77;;;21.20;99.90;;;;;;5089410;28;20216;-76
2022/03/01 12:06:55;;;;;;;13.98;1.52;;;21.20;99.90;;;;;;5080541;28;20742;-76
2022/03/01 12:09:30;;;;;;;9.13;1.48;;;21.20;99.90;;;;;;5085557;28;20208;-75
2022/03/01 12:12:08;;;;;;;9.52;1.75;;;21.20;99.90;;;;;;5090663;28;20199;-77
2022/03/01 12:14:41;;;;;;;15.38;2.60;;;21.20;99.90;;;;;;5092658;28;20667;-74
2022/03/01 12:17:21;;;;;;;16.60;2.33;;;21.20;99.90;;;;;;5094328;28;20188;-74
2022/03/01 12:20:01;;;;;;;12.75;1.80;;;21.20;99.90;;;;;;5094521;28;20184;-77
2022/03/01 12:22:32;;;;;;;13.02;2.10;;;21.20;99.90;;;;;;5095377;28;20188;-76
2022/03/01 12:25:03;;;;;;;10.88;1.67;;;21.20;99.90;;;;;;5095159;28;20216;-76
2022/03/01 12:27:34;;;;;;;12.55;1.73;;;21.30;99.90;;;;;;5095238;28;20581;-75
2022/03/01 12:30:10;;;;;;;15.18;1.83;;;21.20;99.90;;;;;;5095209;28;20636;-73
2022/03/01 12:32:41;;;;;;;13.70;2.08;;;21.20;99.90;;;;;;5094324;28;20198;-74
2022/03/01 12:35:14;;;;;;;9.75;1.63;;;21.20;99.90;;;;;;5094408;28;20233;-74
2022/03/01 12:37:44;;;;;;;7.97;1.50;;;21.20;99.90;;;;;;5094927;28;20204;-73
2022/03/01 12:40:15;;;;;;;11.88;1.67;;;21.20;99.90;;;;;;5094932;28;20195;-74
2022/03/01 12:42:46;;;;;;;11.15;1.83;;;21.20;99.90;;;;;;5094913;28;20215;-74
2022/03/01 12:45:19;;;;;;;12.82;1.73;;;21.20;99.90;;;;;;5094755;28;20227;-74
2022/03/01 12:47:57;;;;;;;12.90;1.77;;;21.20;99.90;;;;;;5094543;28;20189;-74
2022/03/01 12:50:28;;;;;;;12.55;1.80;;;21.10;99.90;;;;;;5094751;28;20564;-74
2022/03/01 12:53:00;;;;;;;10.77;1.90;;;21.20;99.90;;;;;;5094483;28;20184;-78
2022/03/01 12:55:30;;;;;;;8.82;1.70;;;21.20;99.90;;;;;;5094048;28;20192;-75
2022/03/01 12:58:01;;;;;;;14.40;1.92;;;21.20;99.90;;;;;;5094470;28;20242;-74
2022/03/01 13:00:34;;;;;;;12.27;1.75;;;21.10;99.90;;;;;;5094434;28;20249;-74